Time;durP1;ratioP1;P1;durP2;ratioP2;P2;SDS_P1;SDS_P2;PMS_P1;PMS_P2;Temp;Humidity;BMP_temperature;BMP_pressure;BME280_temperature;BME280_humidity;BME280_pressure;Samples;Min_cycle;Max_cycle;Signal;HPM_P1;HPM_P2
2023/10/15 00:00:21;;;;;;;4.43;3.20;;;;;;;19.36;56.97;101918.31;4998820;28;20053;-35
2023/10/15 00:02:49;;;;;;;5.55;3.53;;;;;;;19.37;56.76;101919.16;5002111;28;20050;-35
2023/10/15 00:05:20;;;;;;;4.63;3.30;;;;;;;19.35;56.98;101911.25;5001873;28;20450;-35
2023/10/15 00:07:49;;;;;;;6.70;3.50;;;;;;;19.33;57.13;101913.22;4999513;28;20060;-35
2023/10/15 00:10:18;;;;;;;4.35;3.28;;;;;;;19.33;57.53;101896.25;4999482;28;20514;-35
2023/10/15 00:12:50;;;;;;;4.65;3.20;;;;;;;19.32;57.42;101897.22;5004309;28;20350;-35
2023/10/15 00:15:20;;;;;;;3.92;2.72;;;;;;;19.30;56.96;101897.38;5004443;28;20056;-35
2023/10/15 00:17:50;;;;;;;3.67;2.95;;;;;;;19.29;56.67;101884.91;5003968;28;20183;-35
2023/10/15 00:20:19;;;;;;;3.08;2.70;;;;;;;19.28;57.26;101888.59;5006251;28;20432;-35
2023/10/15 00:22:50;;;;;;;4.15;3.20;;;;;;;19.28;56.80;101906.56;4997974;28;20050;-36
2023/10/15 00:25:19;;;;;;;5.82;3.00;;;;;;;19.24;57.06;101904.13;5003516;28;20046;-35
2023/10/15 00:27:54;;;;;;;3.78;2.70;;;;;;;19.25;57.17;101896.91;5005286;28;20077;-35
2023/10/15 00:30:22;;;;;;;3.22;2.50;;;;;;;19.24;57.15;101897.91;5010035;28;20054;-35
2023/10/15 00:32:52;;;;;;;5.90;2.92;;;;;;;19.23;57.10;101896.22;5009416;28;20453;-35
2023/10/15 00:35:19;;;;;;;3.55;2.65;;;;;;;19.22;57.12;101890.00;5009917;28;20053;-35
2023/10/15 00:37:56;;;;;;;5.53;3.10;;;;;;;19.21;56.83;101890.97;5002727;28;20054;-35
2023/10/15 00:40:25;;;;;;;6.68;2.90;;;;;;;19.21;56.80;101888.28;5003276;28;20128;-35
2023/10/15 00:42:52;;;;;;;3.40;2.85;;;;;;;19.20;57.13;101905.41;5005704;28;20046;-34
2023/10/15 00:45:20;;;;;;;4.22;2.90;;;;;;;19.19;56.72;101901.00;5003749;28;20046;-35
2023/10/15 00:48:02;;;;;;;5.10;3.30;;;;;;;19.19;57.06;101909.06;5007134;28;20046;-34
2023/10/15 00:50:31;;;;;;;3.72;2.47;;;;;;;19.18;56.96;101914.59;5006722;28;20211;-34
2023/10/15 00:53:06;;;;;;;3.47;2.58;;;;;;;19.18;57.24;101926.19;5008126;28;20115;-34
2023/10/15 00:55:37;;;;;;;3.22;2.33;;;;;;;19.17;57.03;101923.63;5004989;28;20046;-34
2023/10/15 00:58:08;;;;;;;4.45;2.80;;;;;;;19.19;57.47;101941.31;5005054;28;20081;-35
2023/10/15 01:01:38;;;;;;;3.38;2.45;;;;;;;19.16;57.40;101933.53;5007745;28;20146;-34
2023/10/15 01:03:33;;;;;;;4.30;2.88;;;;;;;19.16;56.85;101957.72;5006112;28;20054;-34
2023/10/15 01:06:04;;;;;;;4.40;2.75;;;;;;;19.17;57.26;101959.41;5008216;28;20232;-34
2023/10/15 01:08:35;;;;;;;3.40;2.47;;;;;;;19.16;56.91;101959.56;5001655;28;20050;-34
2023/10/15 01:11:12;;;;;;;3.63;2.70;;;;;;;19.15;57.52;101957.84;5003728;28;20054;-35
2023/10/15 01:13:38;;;;;;;4.78;2.80;;;;;;;19.14;57.54;101946.25;5004847;28;20053;-34
2023/10/15 01:16:08;;;;;;;5.00;2.80;;;;;;;19.14;56.98;101940.03;5004108;28;20069;-35
2023/10/15 01:18:36;;;;;;;3.33;2.10;;;;;;;19.14;57.13;101918.53;5005117;28;20054;-34
2023/10/15 01:21:10;;;;;;;3.13;2.40;;;;;;;19.13;57.35;101898.84;5005699;28;20087;-34
2023/10/15 01:26:15;;;;;;;4.10;2.38;;;;;;;19.10;57.03;101872.28;5002902;28;20050;-34
2023/10/15 01:28:43;;;;;;;2.75;2.10;;;;;;;19.09;57.19;101875.91;5006829;28;20100;-34
2023/10/15 01:31:15;;;;;;;4.53;2.40;;;;;;;19.08;56.96;101865.31;5006504;28;20092;-35
2023/10/15 01:33:48;;;;;;;2.67;2.20;;;;;;;19.08;56.93;101866.16;5001934;28;20501;-34
2023/10/15 01:36:38;;;;;;;3.15;2.20;;;;;;;19.08;57.29;101876.06;5010064;28;20134;-34
2023/10/15 01:39:09;;;;;;;2.97;2.10;;;;;;;19.06;57.26;101878.06;5004523;28;20109;-35
2023/10/15 01:41:39;;;;;;;3.83;2.47;;;;;;;19.07;57.02;101879.75;5006675;28;20046;-34
2023/10/15 01:44:07;;;;;;;2.92;2.05;;;;;;;19.06;57.17;101892.34;5003073;28;20050;-34
2023/10/15 01:46:45;;;;;;;2.83;2.10;;;;;;;19.05;57.32;101903.19;5005160;28;20042;-35
2023/10/15 01:49:17;;;;;;;3.35;1.88;;;;;;;19.03;56.85;101889.06;5006086;28;20054;-34
2023/10/15 01:51:44;;;;;;;2.45;1.92;;;;;;;19.01;56.99;101885.66;5003907;28;20054;-35
2023/10/15 01:54:16;;;;;;;2.92;2.15;;;;;;;18.99;56.71;101883.09;5003927;28;20049;-34
2023/10/15 01:56:46;;;;;;;2.88;1.73;;;;;;;18.96;56.98;101867.25;5009382;28;20141;-34
2023/10/15 01:59:12;;;;;;;2.22;1.48;;;;;;;18.96;56.49;101873.47;5008539;28;20058;-34
2023/10/15 02:01:49;;;;;;;4.97;2.15;;;;;;;18.94;56.82;101874.59;5006675;28;20594;-34
2023/10/15 02:04:29;;;;;;;2.10;1.67;;;;;;;18.92;56.40;101879.25;5005290;28;20052;-34
2023/10/15 02:06:57;;;;;;;2.13;1.63;;;;;;;18.90;56.21;101883.91;5005901;28;20137;-34
2023/10/15 02:09:23;;;;;;;2.88;1.80;;;;;;;18.88;56.67;101888.56;5004341;28;20074;-34
2023/10/15 02:11:53;;;;;;;1.83;1.40;;;;;;;18.87;55.98;101900.31;5002192;28;20058;-34
2023/10/15 02:14:23;;;;;;;2.13;1.40;;;;;;;18.86;56.36;101895.91;5004193;28;20050;-34
2023/10/15 02:16:50;;;;;;;2.40;1.50;;;;;;;18.85;56.03;101886.13;5003787;28;20044;-35
2023/10/15 02:19:28;;;;;;;2.65;1.35;;;;;;;18.84;56.61;101890.66;5006465;28;20050;-34
2023/10/15 02:21:56;;;;;;;2.40;1.63;;;;;;;18.84;56.54;101885.28;5000127;28;20461;-34
2023/10/15 02:24:23;;;;;;;1.90;1.45;;;;;;;18.84;55.86;101889.81;4998778;28;20092;-34
2023/10/15 02:26:50;;;;;;;3.30;1.65;;;;;;;18.83;56.38;101882.75;5003387;28;20069;-34
2023/10/15 02:32:08;;;;;;;1.45;1.35;;;;;;;18.81;56.20;101868.59;5004954;28;20140;-34
2023/10/15 02:34:40;;;;;;;1.63;1.17;;;;;;;18.82;56.35;101859.56;5003691;28;20053;-34
2023/10/15 02:37:10;;;;;;;3.58;1.42;;;;;;;18.82;56.37;101867.63;5002897;28;20050;-34
2023/10/15 02:39:44;;;;;;;4.22;1.58;;;;;;;18.81;55.94;101855.16;5003335;28;20421;-34
2023/10/15 02:42:11;;;;;;;2.00;1.48;;;;;;;18.81;55.75;101861.38;4999891;28;20065;-35
2023/10/15 02:44:38;;;;;;;1.10;1.00;;;;;;;18.81;56.23;101850.63;5001661;28;20111;-35
2023/10/15 02:47:19;;;;;;;2.03;1.20;;;;;;;18.81;56.08;101868.59;5004372;28;20057;-34
2023/10/15 02:49:51;;;;;;;2.40;1.42;;;;;;;18.80;56.19;101883.00;5001325;28;20111;-34
2023/10/15 02:52:23;;;;;;;1.60;1.17;;;;;;;18.80;56.13;101883.84;4999499;28;20434;-34
2023/10/15 02:54:50;;;;;;;2.42;1.38;;;;;;;18.79;56.15;101892.91;5001679;28;20056;-34
2023/10/15 02:57:17;;;;;;;2.08;1.30;;;;;;;18.79;56.54;101910.84;5002260;28;20328;-34
2023/10/15 02:59:50;;;;;;;2.05;1.42;;;;;;;18.78;56.54;101927.97;5002016;28;20144;-34
2023/10/15 03:02:19;;;;;;;2.88;1.20;;;;;;;18.78;56.24;101936.03;5008695;28;20462;-34
2023/10/15 03:04:55;;;;;;;1.48;1.10;;;;;;;18.78;56.73;101949.44;5008458;28;20115;-34
2023/10/15 03:07:33;;;;;;;2.22;1.30;;;;;;;18.79;56.70;101967.25;5003714;28;20058;-34
2023/10/15 03:10:03;;;;;;;1.50;1.33;;;;;;;18.79;56.58;101954.69;5003401;28;20353;-34
2023/10/15 03:12:43;;;;;;;2.08;1.30;;;;;;;18.79;56.50;101959.22;5006363;28;20049;-34
2023/10/15 03:15:11;;;;;;;1.55;1.20;;;;;;;18.79;56.79;101959.22;5005778;28;20042;-34
2023/10/15 03:17:40;;;;;;;2.58;1.40;;;;;;;18.78;57.10;101952.13;4999078;28;20108;-35
2023/10/15 03:22:44;;;;;;;1.95;1.42;;;;;;;18.78;57.03;101934.19;5003684;28;20050;-35
2023/10/15 03:25:15;;;;;;;3.10;1.50;;;;;;;18.79;57.01;101940.41;5004934;28;20587;-34
2023/10/15 03:27:53;;;;;;;1.85;1.30;;;;;;;18.78;57.35;101931.50;5001156;28;20058;-35
2023/10/15 03:30:23;;;;;;;2.75;1.30;;;;;;;18.77;56.79;101937.84;5004888;28;20137;-34
2023/10/15 03:32:52;;;;;;;1.65;0.95;;;;;;;18.78;57.44;101962.88;5006715;28;20417;-35
2023/10/15 03:35:38;;;;;;;1.40;1.20;;;;;;;18.78;56.92;101970.94;5008514;28;20084;-34
2023/10/15 03:38:07;;;;;;;1.58;1.05;;;;;;;18.78;57.01;101944.06;5005998;28;20248;-34
2023/10/15 03:40:50;;;;;;;1.95;1.00;;;;;;;18.77;57.46;101923.56;4997337;28;20120;-34
2023/10/15 03:43:23;;;;;;;1.77;1.23;;;;;;;18.76;57.50;101930.75;5001473;28;20105;-34
2023/10/15 03:45:53;;;;;;;1.27;1.10;;;;;;;18.74;57.43;101944.34;5004861;28;20057;-34
2023/10/15 03:48:32;;;;;;;1.42;0.88;;;;;;;18.74;57.57;101984.63;5004996;28;20074;-34
2023/10/15 03:50:58;;;;;;;2.33;1.02;;;;;;;18.74;57.32;102008.78;5006600;28;20473;-34
2023/10/15 03:53:32;;;;;;;1.70;0.90;;;;;;;18.72;57.49;101988.41;5002204;28;20137;-34
2023/10/15 03:56:00;;;;;;;1.83;1.40;;;;;;;18.71;57.36;101982.19;5003367;28;20508;-34
2023/10/15 03:58:28;;;;;;;1.85;1.20;;;;;;;18.72;57.33;101981.19;4999230;28;20054;-34
2023/10/15 04:01:17;;;;;;;1.33;0.90;;;;;;;18.71;57.22;101967.91;5003677;28;20398;-34
2023/10/15 04:03:47;;;;;;;1.55;0.90;;;;;;;18.71;57.33;101949.13;5003303;28;20054;-34
2023/10/15 04:06:19;;;;;;;2.28;1.17;;;;;;;18.69;57.00;101922.38;5005476;28;20433;-34
2023/10/15 04:11:30;;;;;;;1.08;0.93;;;;;;;18.68;57.47;101912.59;5002932;28;20060;-34
2023/10/15 04:13:57;;;;;;;2.55;1.10;;;;;;;18.68;57.10;101901.84;5002642;28;20434;-34
2023/10/15 04:16:24;;;;;;;1.08;0.75;;;;;;;18.67;57.44;101899.31;5001638;28;20037;-34
2023/10/15 04:18:51;;;;;;;1.42;0.90;;;;;;;18.67;57.39;101900.16;5002178;28;20087;-34
2023/10/15 04:21:19;;;;;;;2.38;1.05;;;;;;;18.67;57.20;101896.63;5000367;28;20056;-35
2023/10/15 04:23:49;;;;;;;2.58;1.15;;;;;;;18.67;57.48;101913.56;4999972;28;20051;-34
2023/10/15 04:26:16;;;;;;;0.95;0.88;;;;;;;18.68;57.36;101928.69;5004986;28;20108;-34
2023/10/15 04:28:43;;;;;;;2.00;0.70;;;;;;;18.67;57.56;101924.31;4997877;28;20145;-34
2023/10/15 04:31:21;;;;;;;1.40;0.85;;;;;;;18.67;57.47;101920.78;5005426;28;20049;-34
2023/10/15 04:33:51;;;;;;;1.33;0.90;;;;;;;18.66;57.30;101919.09;4999994;28;20067;-34
2023/10/15 04:36:17;;;;;;;1.88;1.00;;;;;;;18.66;57.28;101916.41;5002792;28;20042;-34
2023/10/15 04:38:45;;;;;;;1.42;1.00;;;;;;;18.65;57.49;101909.31;5000596;28;20082;-34
2023/10/15 04:41:11;;;;;;;2.15;1.08;;;;;;;18.65;57.29;101906.63;5005733;28;20498;-35
2023/10/15 04:43:47;;;;;;;2.28;0.82;;;;;;;18.64;57.53;101907.63;5006762;28;20108;-34
2023/10/15 04:46:25;;;;;;;0.90;0.70;;;;;;;18.64;57.44;101902.25;5004080;28;20046;-34
2023/10/15 04:48:52;;;;;;;1.77;1.20;;;;;;;18.61;57.22;101902.50;4998886;28;20054;-34
2023/10/15 04:51:18;;;;;;;1.58;1.10;;;;;;;18.60;57.33;101900.81;5005694;28;20088;-34
2023/10/15 04:53:48;;;;;;;2.67;0.93;;;;;;;18.58;57.14;101892.91;5001091;28;20046;-34
2023/10/15 04:56:15;;;;;;;1.45;0.82;;;;;;;18.57;56.71;101901.06;4998201;28;20410;-34
2023/10/15 04:58:42;;;;;;;1.25;0.80;;;;;;;18.56;56.80;101913.63;5003996;28;20066;-34
2023/10/15 05:01:09;;;;;;;0.95;0.80;;;;;;;18.55;56.97;101914.63;5002178;28;20045;-34
2023/10/15 05:03:39;;;;;;;1.42;0.90;;;;;;;18.54;57.21;101928.19;5001501;28;20050;-34
2023/10/15 05:06:10;;;;;;;1.65;0.80;;;;;;;18.53;57.20;101948.78;5003687;28;20431;-35
2023/10/15 05:08:40;;;;;;;2.05;0.88;;;;;;;18.54;56.79;101960.41;4998566;28;20050;-35
2023/10/15 05:11:10;;;;;;;0.82;0.68;;;;;;;18.54;56.86;101966.63;5005025;28;20145;-35
2023/10/15 05:13:36;;;;;;;1.27;0.90;;;;;;;18.54;57.17;101968.47;5003046;28;20054;-35
2023/10/15 05:16:04;;;;;;;1.33;0.90;;;;;;;18.53;57.38;101967.59;5003055;28;20275;-35
2023/10/15 05:18:32;;;;;;;1.13;0.90;;;;;;;18.53;56.93;101964.06;5004417;28;20108;-35
2023/10/15 05:21:00;;;;;;;1.45;0.75;;;;;;;18.52;56.85;101955.16;5005479;28;20053;-35
2023/10/15 05:23:28;;;;;;;0.60;0.60;;;;;;;18.53;57.26;101950.63;5002438;28;20046;-35
2023/10/15 05:25:56;;;;;;;1.35;1.00;;;;;;;18.52;56.99;101940.88;5006503;28;20049;-35
2023/10/15 05:28:23;;;;;;;1.02;0.90;;;;;;;18.50;57.38;101936.50;5002726;28;20058;-35
2023/10/15 05:30:50;;;;;;;1.08;0.73;;;;;;;18.50;57.68;101939.19;5012021;28;20053;-35
2023/10/15 05:33:17;;;;;;;1.15;0.82;;;;;;;18.50;57.00;101947.25;5003130;28;20046;-35
2023/10/15 05:35:47;;;;;;;1.15;0.70;;;;;;;18.50;57.45;101938.34;5004942;28;20049;-35
2023/10/15 05:38:14;;;;;;;1.90;0.90;;;;;;;18.50;57.30;101951.75;5005910;28;20061;-35
2023/10/15 05:40:41;;;;;;;1.27;0.80;;;;;;;18.49;57.61;101966.16;5007446;28;20100;-35
2023/10/15 05:43:08;;;;;;;0.82;0.80;;;;;;;18.49;56.79;101988.50;5001897;28;20116;-35
2023/10/15 05:45:35;;;;;;;3.15;0.80;;;;;;;18.48;57.03;101962.63;5005459;28;20414;-35
2023/10/15 05:48:02;;;;;;;1.40;1.00;;;;;;;18.46;57.17;101975.34;5009827;28;20077;-35
2023/10/15 05:50:29;;;;;;;0.70;0.60;;;;;;;18.45;57.39;101972.75;5006779;28;21066;-35
2023/10/15 05:52:56;;;;;;;1.08;0.90;;;;;;;18.45;57.15;101970.06;5003781;28;20135;-35
2023/10/15 05:55:22;;;;;;;0.85;0.70;;;;;;;18.44;57.03;101963.00;5004141;28;20050;-35
2023/10/15 05:57:49;;;;;;;1.67;0.90;;;;;;;18.43;57.16;101959.47;5007761;28;20509;-35
2023/10/15 06:00:19;;;;;;;1.30;0.80;;;;;;;18.43;57.14;101970.22;5007740;28;20062;-35
2023/10/15 06:02:47;;;;;;;1.52;0.98;;;;;;;18.43;57.45;101986.31;4996167;28;20078;-35
2023/10/15 06:05:14;;;;;;;0.63;0.63;;;;;;;18.44;57.12;101989.84;5004179;28;20438;-35
2023/10/15 06:07:42;;;;;;;0.90;0.75;;;;;;;18.44;57.09;101995.22;5000453;28;20054;-35
2023/10/15 06:10:11;;;;;;;1.13;0.90;;;;;;;18.42;56.86;101992.69;5001643;28;20050;-35
2023/10/15 06:12:38;;;;;;;0.70;0.63;;;;;;;18.43;57.14;102002.41;5002411;28;20069;-35
2023/10/15 06:15:06;;;;;;;1.70;0.70;;;;;;;18.44;57.33;102004.13;4999927;28;20043;-35
2023/10/15 06:17:33;;;;;;;1.27;0.70;;;;;;;18.42;57.41;101994.50;5001852;28;20062;-35
2023/10/15 06:20:12;;;;;;;1.42;0.60;;;;;;;18.43;56.79;101999.75;5001108;28;20052;-35
2023/10/15 06:22:47;;;;;;;2.25;0.57;;;;;;;18.42;57.75;101995.34;5003045;28;20505;-35
2023/10/15 06:25:18;;;;;;;0.40;0.40;;;;;;;18.44;57.25;102003.28;5002527;28;20402;-35
2023/10/15 06:27:45;;;;;;;0.90;0.80;;;;;;;18.42;57.61;101998.03;5003380;28;20050;-35
2023/10/15 06:30:16;;;;;;;2.95;0.70;;;;;;;18.43;57.16;102006.94;4999389;28;20060;-35
2023/10/15 06:32:47;;;;;;;1.00;0.68;;;;;;;18.42;57.54;102011.47;5001338;28;20440;-35
2023/10/15 06:35:18;;;;;;;2.70;1.00;;;;;;;18.43;57.35;102015.00;5002085;28;20050;-35
2023/10/15 06:37:47;;;;;;;0.75;0.60;;;;;;;18.42;57.46;102013.31;5001718;28;20375;-35
2023/10/15 06:40:15;;;;;;;7.90;0.90;;;;;;;18.41;57.27;102009.78;5002980;28;20136;-35
2023/10/15 06:42:51;;;;;;;0.98;0.60;;;;;;;18.40;57.19;102004.50;5004843;28;20154;-35
2023/10/15 06:45:21;;;;;;;1.52;0.90;;;;;;;18.40;56.96;101991.94;5001459;28;20050;-35
2023/10/15 06:47:51;;;;;;;0.98;0.70;;;;;;;18.40;57.29;101980.34;4998827;28;20054;-35
2023/10/15 06:50:20;;;;;;;2.03;0.60;;;;;;;18.39;57.38;101986.72;5002204;28;20054;-35
2023/10/15 06:52:52;;;;;;;0.75;0.60;;;;;;;18.39;57.47;102005.50;5002924;28;20049;-35
2023/10/15 06:55:22;;;;;;;2.30;0.98;;;;;;;18.37;57.22;102010.13;5002148;28;20046;-35
2023/10/15 06:57:50;;;;;;;0.70;0.50;;;;;;;18.37;57.61;102026.22;5001829;28;20046;-35
2023/10/15 07:00:24;;;;;;;0.90;0.65;;;;;;;18.37;57.49;102050.38;5000719;28;20077;-35
2023/10/15 07:02:53;;;;;;;2.72;0.90;;;;;;;18.38;57.39;102054.81;4999005;28;20054;-35
2023/10/15 07:05:23;;;;;;;1.23;0.80;;;;;;;18.36;57.73;102033.44;5000561;28;20054;-35
2023/10/15 07:07:50;;;;;;;2.63;0.90;;;;;;;18.37;57.98;102047.72;4997379;28;20042;-35
2023/10/15 07:10:17;;;;;;;2.65;0.52;;;;;;;18.37;57.70;102045.91;5002721;28;20050;-34
2023/10/15 07:12:45;;;;;;;1.30;0.55;;;;;;;18.37;57.59;102047.72;5006288;28;20529;-35
2023/10/15 07:15:14;;;;;;;2.00;0.80;;;;;;;18.37;57.75;102055.75;5004452;28;20053;-34
2023/10/15 07:17:44;;;;;;;2.85;0.80;;;;;;;18.36;57.77;102044.16;5003604;28;20045;-34
2023/10/15 07:20:21;;;;;;;1.15;0.57;;;;;;;18.37;57.66;102047.72;5005502;28;20049;-35
2023/10/15 07:22:49;;;;;;;1.90;0.90;;;;;;;18.37;57.52;102061.13;5002752;28;20058;-34
2023/10/15 07:25:18;;;;;;;1.30;0.70;;;;;;;18.37;57.59;102058.44;5002415;28;20053;-34
2023/10/15 07:27:46;;;;;;;0.85;0.70;;;;;;;18.37;57.66;102058.44;5001638;28;20053;-34
2023/10/15 07:30:14;;;;;;;1.42;0.90;;;;;;;18.38;57.55;102068.22;5001639;28;20382;-34
2023/10/15 07:32:44;;;;;;;1.95;0.80;;;;;;;18.40;57.89;102071.63;5000889;28;20146;-35
2023/10/15 07:35:13;;;;;;;1.05;0.80;;;;;;;18.42;57.91;102080.41;5000234;28;20133;-34
2023/10/15 07:37:48;;;;;;;1.90;0.80;;;;;;;18.43;57.54;102084.78;5001902;28;20342;-34
2023/10/15 07:40:21;;;;;;;1.30;0.88;;;;;;;18.45;57.87;102091.75;4995641;28;21035;-38
2023/10/15 07:42:53;;;;;;;1.75;0.63;;;;;;;18.48;57.80;102115.66;4984636;28;20477;-43
2023/10/15 07:45:27;;;;;;;2.45;0.90;;;;;;;18.53;57.77;102120.63;4990315;28;20051;-41
2023/10/15 07:48:07;;;;;;;2.45;1.08;;;;;;;18.56;58.12;102124.91;4996636;28;20561;-40
2023/10/15 07:50:35;;;;;;;0.98;0.50;;;;;;;18.62;57.93;102132.47;4998041;28;20377;-40
2023/10/15 07:53:02;;;;;;;2.25;0.68;;;;;;;18.65;58.57;102134.88;4996193;28;20393;-41
2023/10/15 07:55:29;;;;;;;1.58;0.68;;;;;;;18.68;57.98;102148.91;4993545;28;20057;-39
2023/10/15 07:57:57;;;;;;;5.97;1.15;;;;;;;18.71;58.06;102153.22;4994666;28;20465;-37
2023/10/15 08:00:26;;;;;;;1.35;0.70;;;;;;;18.73;58.55;102152.13;4994487;28;20453;-38
2023/10/15 08:02:57;;;;;;;3.53;0.63;;;;;;;18.76;58.47;102152.84;4995147;28;20064;-40
2023/10/15 08:05:26;;;;;;;2.17;0.77;;;;;;;18.80;58.46;102157.81;4995679;28;20133;-39
2023/10/15 08:07:54;;;;;;;1.92;1.00;;;;;;;18.83;57.78;102149.53;4991187;28;20046;-39
2023/10/15 08:10:21;;;;;;;2.85;0.70;;;;;;;18.86;58.11;102151.13;4995157;28;20101;-42
2023/10/15 08:12:52;;;;;;;2.80;0.70;;;;;;;18.90;58.09;102147.19;4994068;28;20069;-39
2023/10/15 08:15:20;;;;;;;3.20;0.73;;;;;;;18.93;58.30;102153.13;4994673;28;20125;-40
2023/10/15 08:17:47;;;;;;;2.95;0.88;;;;;;;18.96;57.75;102158.25;4997694;28;20077;-40
2023/10/15 08:20:14;;;;;;;1.52;0.95;;;;;;;19.00;57.79;102156.19;4996813;28;20046;-40
2023/10/15 08:22:44;;;;;;;1.88;0.68;;;;;;;19.01;57.87;102155.19;4996778;28;20054;-40
2023/10/15 08:25:13;;;;;;;1.70;0.88;;;;;;;19.03;57.88;102160.44;4996178;28;20061;-39
2023/10/15 08:27:44;;;;;;;2.45;1.00;;;;;;;19.05;57.60;102156.63;4990001;28;20046;-39
2023/10/15 08:30:15;;;;;;;4.22;1.30;;;;;;;19.07;57.30;102146.63;4991505;28;20064;-39
2023/10/15 08:32:44;;;;;;;2.83;1.15;;;;;;;19.10;57.78;102154.44;4990379;28;20072;-39
2023/10/15 08:35:13;;;;;;;3.15;1.30;;;;;;;19.12;57.51;102151.63;4992203;28;20058;-39
2023/10/15 08:37:41;;;;;;;2.78;1.38;;;;;;;19.14;57.28;102150.50;4989285;28;20133;-40
2023/10/15 08:40:15;;;;;;;4.28;1.58;;;;;;;19.16;57.12;102156.59;4993506;28;20287;-42
2023/10/15 08:42:49;;;;;;;3.22;1.67;;;;;;;19.18;57.49;102162.72;4993007;28;20050;-39
2023/10/15 08:45:22;;;;;;;3.28;1.95;;;;;;;19.21;57.08;102167.81;4992995;28;20520;-40
2023/10/15 08:47:50;;;;;;;5.22;1.80;;;;;;;19.23;57.11;102167.69;4995348;28;20057;-40
2023/10/15 08:50:20;;;;;;;4.00;1.80;;;;;;;19.27;57.56;102189.81;4996781;28;20358;-40
2023/10/15 08:52:53;;;;;;;3.47;1.77;;;;;;;19.30;56.83;102197.63;4999902;28;20491;-40
2023/10/15 08:55:24;;;;;;;5.65;2.25;;;;;;;19.32;57.21;102209.06;5002581;28;20080;-40
2023/10/15 08:57:54;;;;;;;3.53;1.58;;;;;;;19.34;57.59;102231.31;4998204;28;20141;-40
2023/10/15 09:00:26;;;;;;;7.55;2.53;;;;;;;19.36;56.71;102226.66;4996743;28;20081;-39
2023/10/15 09:03:00;;;;;;;11.65;1.90;;;;;;;19.38;57.09;102227.41;4992403;28;20050;-40
2023/10/15 09:05:33;;;;;;;6.30;1.80;;;;;;;19.39;57.00;102229.09;4995204;28;20386;-40
2023/10/15 09:08:07;;;;;;;10.15;1.80;;;;;;;19.38;56.83;102230.94;4999230;28;20085;-38
2023/10/15 09:10:36;;;;;;;7.18;2.08;;;;;;;19.37;56.27;102231.88;4999026;28;20100;-40
2023/10/15 09:13:04;;;;;;;4.90;1.38;;;;;;;19.38;56.94;102222.03;4998200;28;20219;-38
2023/10/15 09:15:31;;;;;;;4.25;1.63;;;;;;;19.37;56.92;102214.91;4997392;28;20054;-39
2023/10/15 09:17:59;;;;;;;2.63;1.40;;;;;;;19.38;56.36;102219.31;5000997;28;20508;-39
2023/10/15 09:20:27;;;;;;;5.03;1.48;;;;;;;19.37;56.72;102215.75;4994848;28;20374;-39
2023/10/15 09:22:59;;;;;;;2.53;1.63;;;;;;;19.37;56.06;102225.66;4996401;28;20492;-39
2023/10/15 09:25:29;;;;;;;3.35;1.50;;;;;;;19.36;56.88;102229.34;4996418;28;20465;-40
2023/10/15 09:27:57;;;;;;;5.25;2.15;;;;;;;19.37;56.93;102241.78;5002368;28;20120;-39
2023/10/15 09:30:26;;;;;;;3.10;1.45;;;;;;;19.35;56.81;102247.31;5000763;28;20058;-39
2023/10/15 09:32:54;;;;;;;5.43;1.70;;;;;;;19.34;56.42;102237.53;4994885;28;20058;-39
2023/10/15 09:35:21;;;;;;;7.20;2.13;;;;;;;19.35;56.52;102216.88;4994770;28;20050;-39
2023/10/15 09:37:48;;;;;;;4.03;1.50;;;;;;;19.33;56.04;102211.63;4998722;28;20060;-39
2023/10/15 09:40:21;;;;;;;4.18;1.50;;;;;;;19.34;56.63;102213.34;4995833;28;20466;-39
2023/10/15 09:42:52;;;;;;;4.10;1.50;;;;;;;19.35;56.28;102222.28;4993186;28;20050;-39
2023/10/15 09:45:23;;;;;;;4.00;1.73;;;;;;;19.38;56.44;102235.47;4997342;28;20100;-39
2023/10/15 09:47:57;;;;;;;3.40;1.75;;;;;;;19.39;56.57;102239.84;4997361;28;20042;-39
2023/10/15 09:50:27;;;;;;;2.65;1.65;;;;;;;19.41;55.98;102248.63;4993926;28;20141;-39
2023/10/15 09:52:56;;;;;;;4.68;1.85;;;;;;;19.43;56.33;102265.50;4996858;28;20050;-40
2023/10/15 09:55:27;;;;;;;5.15;2.00;;;;;;;19.44;56.81;102275.25;4998624;28;20330;-40
2023/10/15 09:57:57;;;;;;;4.50;2.03;;;;;;;19.46;56.54;102276.00;4998492;28;20504;-39
2023/10/15 10:03:37;;;;;;;3.22;1.60;;;;;;;19.45;56.18;102267.06;4996004;28;20057;-40
2023/10/15 10:06:12;;;;;;;3.28;1.52;;;;;;;19.47;55.87;102264.25;4999060;28;20057;-40
2023/10/15 10:08:58;;;;;;;3.20;1.60;;;;;;;19.48;56.52;102268.66;4997784;28;20838;-40
2023/10/15 10:12:19;;;;;;;2.60;1.50;;;;;;;19.46;55.93;102278.69;4997985;28;20194;-39
2023/10/15 10:14:46;;;;;;;5.40;2.05;;;;;;;19.48;56.26;102279.41;4993037;28;20061;-39
2023/10/15 10:17:18;;;;;;;4.50;1.48;;;;;;;19.47;56.58;102285.78;4994552;28;20074;-39
2023/10/15 10:19:48;;;;;;;4.97;1.70;;;;;;;19.48;56.03;102274.03;4998246;28;20132;-40
2023/10/15 10:22:26;;;;;;;3.55;1.63;;;;;;;19.48;56.11;102272.19;4999982;28;20437;-39
2023/10/15 10:24:58;;;;;;;6.88;1.70;;;;;;;19.53;56.36;102285.25;4994444;28;20327;-39
2023/10/15 10:27:26;;;;;;;8.52;2.80;;;;;;;19.56;56.58;102282.31;4998837;28;20134;-39
2023/10/15 10:29:53;;;;;;;10.23;3.10;;;;;;;19.62;56.90;102283.69;4993053;28;20722;-39
2023/10/15 10:32:21;;;;;;;13.65;3.92;;;;;;;19.66;57.04;102272.53;4995062;28;20290;-38
2023/10/15 10:35:22;;;;;;;16.17;4.38;;;;;;;19.70;56.93;102284.72;4999844;28;20054;-39
2023/10/15 10:38:06;;;;;;;17.10;4.32;;;;;;;19.75;56.43;102289.72;4984139;28;20073;-39
2023/10/15 10:40:51;;;;;;;24.00;5.65;;;;;;;19.77;56.18;102286.88;4995676;28;20069;-39
2023/10/15 10:43:21;;;;;;;18.25;5.10;;;;;;;19.80;56.09;102286.63;4993797;28;20066;-39
2023/10/15 10:46:00;;;;;;;16.38;5.20;;;;;;;19.80;56.70;102292.00;4994799;28;20053;-39
2023/10/15 10:48:29;;;;;;;16.98;5.15;;;;;;;19.82;56.65;102296.28;4994290;28;20057;-39
2023/10/15 10:51:19;;;;;;;17.55;5.70;;;;;;;19.82;56.23;102296.28;4993836;28;20054;-38
2023/10/15 10:53:57;;;;;;;19.63;6.50;;;;;;;19.85;55.80;102298.69;4993362;28;20053;-39
2023/10/15 10:56:44;;;;;;;16.98;6.28;;;;;;;19.87;56.56;102303.97;4995226;28;20504;-38
2023/10/15 10:59:13;;;;;;;14.43;6.45;;;;;;;19.92;56.54;102302.59;4996161;28;20121;-38
2023/10/15 11:01:46;;;;;;;11.57;5.50;;;;;;;19.94;56.15;102315.94;4995597;28;20053;-38
2023/10/15 11:04:16;;;;;;;19.65;6.90;;;;;;;19.95;56.20;102326.56;4997897;28;20100;-38
2023/10/15 11:06:48;;;;;;;17.05;5.97;;;;;;;19.97;55.79;102331.78;4994576;28;20243;-38
2023/10/15 11:09:15;;;;;;;20.92;6.60;;;;;;;20.00;56.34;102336.06;4996917;28;20052;-38
2023/10/15 11:11:46;;;;;;;18.58;6.68;;;;;;;20.00;56.00;102338.75;4996188;28;20061;-39
2023/10/15 11:14:13;;;;;;;15.45;6.43;;;;;;;20.02;55.89;102344.84;4994226;28;20077;-40
2023/10/15 11:16:44;;;;;;;16.00;6.50;;;;;;;20.04;55.86;102349.13;4994744;28;20160;-41
2023/10/15 11:19:21;;;;;;;16.98;7.45;;;;;;;20.05;55.87;102345.44;4993061;28;20049;-39
2023/10/15 11:21:50;;;;;;;18.40;6.75;;;;;;;20.07;56.15;102339.97;4997204;28;20466;-38
2023/10/15 11:24:17;;;;;;;14.30;6.38;;;;;;;20.09;56.07;102352.28;4994504;28;20389;-39
2023/10/15 11:26:45;;;;;;;21.05;6.82;;;;;;;20.10;55.71;102345.94;4998414;28;20421;-39
2023/10/15 11:29:18;;;;;;;13.27;6.32;;;;;;;20.10;55.98;102336.97;4995762;28;20152;-40
2023/10/15 11:31:48;;;;;;;14.57;6.47;;;;;;;20.11;55.94;102346.78;4993274;28;20050;-39
2023/10/15 11:34:19;;;;;;;13.25;6.53;;;;;;;20.12;55.25;102341.25;4996383;28;20419;-40
2023/10/15 11:36:49;;;;;;;14.77;5.57;;;;;;;20.13;55.65;102342.09;4995745;28;20057;-41
2023/10/15 11:39:25;;;;;;;14.43;7.07;;;;;;;20.13;55.17;102340.25;4991619;28;20098;-39
2023/10/15 11:41:56;;;;;;;13.13;5.93;;;;;;;20.14;54.56;102347.38;4996722;28;20073;-43
2023/10/15 11:44:30;;;;;;;13.93;5.93;;;;;;;20.15;55.36;102334.78;4995855;28;20426;-42
2023/10/15 11:47:08;;;;;;;15.35;6.28;;;;;;;20.15;55.61;102332.06;4997294;28;20050;-42
2023/10/15 11:49:42;;;;;;;14.07;6.30;;;;;;;20.16;55.65;102336.47;4989778;28;20783;-44
2023/10/15 11:52:14;;;;;;;;;;;;;;;20.16;55.48;102333.78;4995154;28;20446;-43
2023/10/15 11:54:43;;;;;;;12.75;5.75;;;;;;;20.20;55.15;102337.91;4993334;28;19971;-42